sensor_id;sensor_type;location;lat;lon;timestamp;temperature;humidity
61979;DHT22;47938;48.176;16.414;2023-01-23T00:01:03;1.50;99.90
61979;DHT22;47938;48.176;16.414;2023-01-23T00:03:30;1.50;99.90
61979;DHT22;47938;48.176;16.414;2023-01-23T00:06:00;1.50;99.90
61979;DHT22;47938;48.176;16.414;2023-01-23T00:08:26;1.50;99.90
61979;DHT22;47938;48.176;16.414;2023-01-23T00:10:52;1.50;99.90
61979;DHT22;47938;48.176;16.414;2023-01-23T00:13:17;1.50;99.90
61979;DHT22;47938;48.176;16.414;2023-01-23T00:15:43;1.50;99.90
61979;DHT22;47938;48.176;16.414;2023-01-23T00:18:09;1.50;99.90
61979;DHT22;47938;48.176;16.414;2023-01-23T00:20:38;1.50;99.90
61979;DHT22;47938;48.176;16.414;2023-01-23T00:23:04;1.60;99.90
61979;DHT22;47938;48.176;16.414;2023-01-23T00:25:30;1.60;99.90
61979;DHT22;47938;48.176;16.414;2023-01-23T00:27:57;1.50;99.90
61979;DHT22;47938;48.176;16.414;2023-01-23T00:30:22;1.50;99.90
61979;DHT22;47938;48.176;16.414;2023-01-23T00:32:48;1.50;99.90
61979;DHT22;47938;48.176;16.414;2023-01-23T00:35:14;1.50;99.90
61979;DHT22;47938;48.176;16.414;2023-01-23T00:37:39;1.50;99.90
61979;DHT22;47938;48.176;16.414;2023-01-23T00:40:05;1.50;99.90
61979;DHT22;47938;48.176;16.414;2023-01-23T00:42:31;1.50;99.90
61979;DHT22;47938;48.176;16.414;2023-01-23T00:44:57;1.50;99.90
61979;DHT22;47938;48.176;16.414;2023-01-23T00:47:22;1.50;99.90
61979;DHT22;47938;48.176;16.414;2023-01-23T00:49:48;1.40;99.90
61979;DHT22;47938;48.176;16.414;2023-01-23T00:52:13;1.40;99.90
61979;DHT22;47938;48.176;16.414;2023-01-23T00:54:39;1.40;99.90
61979;DHT22;47938;48.176;16.414;2023-01-23T00:57:05;1.40;99.90
61979;DHT22;47938;48.176;16.414;2023-01-23T00:59:30;1.40;99.90
61979;DHT22;47938;48.176;16.414;2023-01-23T01:01:56;1.50;99.90
61979;DHT22;47938;48.176;16.414;2023-01-23T01:04:22;1.40;99.90
61979;DHT22;47938;48.176;16.414;2023-01-23T01:06:47;1.40;99.90
61979;DHT22;47938;48.176;16.414;2023-01-23T01:09:13;1.50;99.90
61979;DHT22;47938;48.176;16.414;2023-01-23T01:11:38;1.50;99.90
61979;DHT22;47938;48.176;16.414;2023-01-23T01:14:04;1.50;99.90
61979;DHT22;47938;48.176;16.414;2023-01-23T01:16:30;1.50;99.90
61979;DHT22;47938;48.176;16.414;2023-01-23T01:18:55;1.50;99.90
61979;DHT22;47938;48.176;16.414;2023-01-23T01:21:21;1.50;99.90
61979;DHT22;47938;48.176;16.414;2023-01-23T01:23:47;1.50;99.90
61979;DHT22;47938;48.176;16.414;2023-01-23T01:26:13;1.50;99.90
61979;DHT22;47938;48.176;16.414;2023-01-23T01:28:39;1.50;99.90
61979;DHT22;47938;48.176;16.414;2023-01-23T01:31:11;1.60;99.90
61979;DHT22;47938;48.176;16.414;2023-01-23T01:33:38;1.60;99.90
61979;DHT22;47938;48.176;16.414;2023-01-23T01:36:09;1.60;99.90
61979;DHT22;47938;48.176;16.414;2023-01-23T01:38:34;1.60;99.90
61979;DHT22;47938;48.176;16.414;2023-01-23T01:41:00;1.60;99.90
61979;DHT22;47938;48.176;16.414;2023-01-23T01:43:26;1.60;99.90
61979;DHT22;47938;48.176;16.414;2023-01-23T01:46:08;1.60;99.90
61979;DHT22;47938;48.176;16.414;2023-01-23T01:48:45;1.60;99.90
61979;DHT22;47938;48.176;16.414;2023-01-23T01:51:33;1.60;99.90
61979;DHT22;47938;48.176;16.414;2023-01-23T01:54:06;1.60;99.90
61979;DHT22;47938;48.176;16.414;2023-01-23T01:56:41;1.60;99.90
61979;DHT22;47938;48.176;16.414;2023-01-23T01:59:09;1.60;99.90
61979;DHT22;47938;48.176;16.414;2023-01-23T02:01:36;1.60;99.90
61979;DHT22;47938;48.176;16.414;2023-01-23T02:04:02;1.60;99.90
61979;DHT22;47938;48.176;16.414;2023-01-23T02:06:28;1.60;99.90
61979;DHT22;47938;48.176;16.414;2023-01-23T02:09:18;1.60;99.90
61979;DHT22;47938;48.176;16.414;2023-01-23T02:11:44;1.60;99.90
61979;DHT22;47938;48.176;16.414;2023-01-23T02:14:10;1.60;99.90
61979;DHT22;47938;48.176;16.414;2023-01-23T02:16:37;1.50;99.90
61979;DHT22;47938;48.176;16.414;2023-01-23T02:21:47;1.50;99.90
61979;DHT22;47938;48.176;16.414;2023-01-23T02:26:48;1.50;99.90
61979;DHT22;47938;48.176;16.414;2023-01-23T02:29:15;1.50;99.90
61979;DHT22;47938;48.176;16.414;2023-01-23T02:31:40;1.50;99.90
61979;DHT22;47938;48.176;16.414;2023-01-23T02:34:08;1.60;99.90
61979;DHT22;47938;48.176;16.414;2023-01-23T02:36:34;1.60;99.90
61979;DHT22;47938;48.176;16.414;2023-01-23T02:39:07;1.50;99.90
61979;DHT22;47938;48.176;16.414;2023-01-23T02:41:42;1.60;99.90
61979;DHT22;47938;48.176;16.414;2023-01-23T02:44:18;1.60;99.90
61979;DHT22;47938;48.176;16.414;2023-01-23T02:46:46;1.60;99.90
61979;DHT22;47938;48.176;16.414;2023-01-23T02:49:11;1.70;99.90
61979;DHT22;47938;48.176;16.414;2023-01-23T02:51:37;1.70;99.90
61979;DHT22;47938;48.176;16.414;2023-01-23T02:54:03;1.70;99.90
61979;DHT22;47938;48.176;16.414;2023-01-23T02:56:28;1.60;99.90
61979;DHT22;47938;48.176;16.414;2023-01-23T02:58:54;1.60;99.90
61979;DHT22;47938;48.176;16.414;2023-01-23T03:01:20;1.60;99.90
61979;DHT22;47938;48.176;16.414;2023-01-23T03:03:46;1.60;99.90
61979;DHT22;47938;48.176;16.414;2023-01-23T03:06:11;1.60;99.90
61979;DHT22;47938;48.176;16.414;2023-01-23T03:08:37;1.60;99.90
61979;DHT22;47938;48.176;16.414;2023-01-23T03:11:03;1.60;99.90
61979;DHT22;47938;48.176;16.414;2023-01-23T03:13:29;1.60;99.90
61979;DHT22;47938;48.176;16.414;2023-01-23T03:15:55;1.60;99.90
61979;DHT22;47938;48.176;16.414;2023-01-23T03:18:21;1.50;99.90
61979;DHT22;47938;48.176;16.414;2023-01-23T03:20:46;1.50;99.90
61979;DHT22;47938;48.176;16.414;2023-01-23T03:23:12;1.50;99.90
61979;DHT22;47938;48.176;16.414;2023-01-23T03:25:42;1.50;99.90
61979;DHT22;47938;48.176;16.414;2023-01-23T03:28:08;1.50;99.90
61979;DHT22;47938;48.176;16.414;2023-01-23T03:30:33;1.50;99.90
61979;DHT22;47938;48.176;16.414;2023-01-23T03:32:59;1.50;99.90
61979;DHT22;47938;48.176;16.414;2023-01-23T03:35:24;1.50;99.90
61979;DHT22;47938;48.176;16.414;2023-01-23T03:37:50;1.50;99.90
61979;DHT22;47938;48.176;16.414;2023-01-23T03:42:42;1.40;99.90
61979;DHT22;47938;48.176;16.414;2023-01-23T03:45:08;1.40;99.90
61979;DHT22;47938;48.176;16.414;2023-01-23T03:47:34;1.40;99.90
61979;DHT22;47938;48.176;16.414;2023-01-23T03:50:00;1.40;99.90
61979;DHT22;47938;48.176;16.414;2023-01-23T03:52:26;1.40;99.90
61979;DHT22;47938;48.176;16.414;2023-01-23T03:54:51;1.40;99.90
61979;DHT22;47938;48.176;16.414;2023-01-23T03:57:17;1.40;99.90
61979;DHT22;47938;48.176;16.414;2023-01-23T03:59:43;1.40;99.90
61979;DHT22;47938;48.176;16.414;2023-01-23T04:02:09;1.40;99.90
61979;DHT22;47938;48.176;16.414;2023-01-23T04:04:35;1.50;99.90
61979;DHT22;47938;48.176;16.414;2023-01-23T04:07:02;1.40;99.90
61979;DHT22;47938;48.176;16.414;2023-01-23T04:09:28;1.50;99.90
61979;DHT22;47938;48.176;16.414;2023-01-23T04:11:54;1.40;99.90
61979;DHT22;47938;48.176;16.414;2023-01-23T04:14:21;1.50;99.90
61979;DHT22;47938;48.176;16.414;2023-01-23T04:16:47;1.50;99.90
61979;DHT22;47938;48.176;16.414;2023-01-23T04:19:12;1.50;99.90
61979;DHT22;47938;48.176;16.414;2023-01-23T04:21:38;1.40;99.90
61979;DHT22;47938;48.176;16.414;2023-01-23T04:24:04;1.40;99.90
61979;DHT22;47938;48.176;16.414;2023-01-23T04:26:30;1.40;99.90
61979;DHT22;47938;48.176;16.414;2023-01-23T04:28:55;1.40;99.90
61979;DHT22;47938;48.176;16.414;2023-01-23T04:31:21;1.30;99.90
61979;DHT22;47938;48.176;16.414;2023-01-23T04:33:47;1.20;99.90
61979;DHT22;47938;48.176;16.414;2023-01-23T04:36:12;1.20;99.90
61979;DHT22;47938;48.176;16.414;2023-01-23T04:38:38;1.20;99.90
61979;DHT22;47938;48.176;16.414;2023-01-23T04:41:04;1.20;99.90
61979;DHT22;47938;48.176;16.414;2023-01-23T04:43:30;1.30;99.90
61979;DHT22;47938;48.176;16.414;2023-01-23T04:45:56;1.30;99.90
61979;DHT22;47938;48.176;16.414;2023-01-23T04:48:22;1.20;99.90
61979;DHT22;47938;48.176;16.414;2023-01-23T04:50:49;1.20;99.90
61979;DHT22;47938;48.176;16.414;2023-01-23T04:53:15;1.10;99.90
61979;DHT22;47938;48.176;16.414;2023-01-23T04:55:40;1.10;99.90
61979;DHT22;47938;48.176;16.414;2023-01-23T04:58:06;1.10;99.90
61979;DHT22;47938;48.176;16.414;2023-01-23T05:00:31;1.10;99.90
61979;DHT22;47938;48.176;16.414;2023-01-23T05:02:57;1.00;99.90
61979;DHT22;47938;48.176;16.414;2023-01-23T05:05:23;1.00;99.90
61979;DHT22;47938;48.176;16.414;2023-01-23T05:07:50;0.90;99.90
61979;DHT22;47938;48.176;16.414;2023-01-23T05:10:16;1.00;99.90
61979;DHT22;47938;48.176;16.414;2023-01-23T05:12:42;0.90;99.90
61979;DHT22;47938;48.176;16.414;2023-01-23T05:15:09;0.90;99.90
61979;DHT22;47938;48.176;16.414;2023-01-23T05:17:35;0.90;99.90
61979;DHT22;47938;48.176;16.414;2023-01-23T05:20:00;0.90;99.90
61979;DHT22;47938;48.176;16.414;2023-01-23T05:22:26;0.90;99.90
61979;DHT22;47938;48.176;16.414;2023-01-23T05:24:52;0.90;99.90
61979;DHT22;47938;48.176;16.414;2023-01-23T05:27:17;0.90;99.90
61979;DHT22;47938;48.176;16.414;2023-01-23T05:29:43;0.90;99.90
61979;DHT22;47938;48.176;16.414;2023-01-23T05:32:09;0.80;99.90
61979;DHT22;47938;48.176;16.414;2023-01-23T05:34:34;0.80;99.90
61979;DHT22;47938;48.176;16.414;2023-01-23T05:37:00;0.90;99.90
61979;DHT22;47938;48.176;16.414;2023-01-23T05:39:26;0.90;99.90
61979;DHT22;47938;48.176;16.414;2023-01-23T05:41:51;0.90;99.90
61979;DHT22;47938;48.176;16.414;2023-01-23T05:44:17;0.90;99.90
61979;DHT22;47938;48.176;16.414;2023-01-23T05:46:43;0.90;99.90
61979;DHT22;47938;48.176;16.414;2023-01-23T05:49:08;0.80;99.90
61979;DHT22;47938;48.176;16.414;2023-01-23T05:51:34;0.80;99.90
61979;DHT22;47938;48.176;16.414;2023-01-23T05:54:01;0.80;99.90
61979;DHT22;47938;48.176;16.414;2023-01-23T05:56:27;0.80;99.90
61979;DHT22;47938;48.176;16.414;2023-01-23T05:58:53;0.80;99.90
61979;DHT22;47938;48.176;16.414;2023-01-23T06:01:19;0.80;99.90
61979;DHT22;47938;48.176;16.414;2023-01-23T06:03:46;0.80;99.90
61979;DHT22;47938;48.176;16.414;2023-01-23T06:06:12;0.80;99.90
61979;DHT22;47938;48.176;16.414;2023-01-23T06:08:37;0.80;99.90
61979;DHT22;47938;48.176;16.414;2023-01-23T06:11:03;0.90;99.90
61979;DHT22;47938;48.176;16.414;2023-01-23T06:13:29;0.90;99.90
61979;DHT22;47938;48.176;16.414;2023-01-23T06:15:55;0.90;99.90
61979;DHT22;47938;48.176;16.414;2023-01-23T06:18:21;0.90;99.90
61979;DHT22;47938;48.176;16.414;2023-01-23T06:20:47;0.90;99.90
61979;DHT22;47938;48.176;16.414;2023-01-23T06:23:13;0.90;99.90
61979;DHT22;47938;48.176;16.414;2023-01-23T06:25:41;0.90;99.90
61979;DHT22;47938;48.176;16.414;2023-01-23T06:28:06;0.90;99.90
61979;DHT22;47938;48.176;16.414;2023-01-23T06:30:32;0.90;99.90
61979;DHT22;47938;48.176;16.414;2023-01-23T06:32:57;0.90;99.90
61979;DHT22;47938;48.176;16.414;2023-01-23T06:35:23;0.90;99.90
61979;DHT22;47938;48.176;16.414;2023-01-23T06:37:49;0.90;99.90
61979;DHT22;47938;48.176;16.414;2023-01-23T06:40:14;0.90;99.90
61979;DHT22;47938;48.176;16.414;2023-01-23T06:42:41;1.00;99.90
61979;DHT22;47938;48.176;16.414;2023-01-23T06:45:09;1.00;99.90
61979;DHT22;47938;48.176;16.414;2023-01-23T06:47:35;1.00;99.90
61979;DHT22;47938;48.176;16.414;2023-01-23T06:50:00;1.00;99.90
61979;DHT22;47938;48.176;16.414;2023-01-23T06:52:27;1.10;99.90
61979;DHT22;47938;48.176;16.414;2023-01-23T06:54:53;1.10;99.90
61979;DHT22;47938;48.176;16.414;2023-01-23T06:57:19;1.10;99.90
61979;DHT22;47938;48.176;16.414;2023-01-23T06:59:44;1.10;99.90
61979;DHT22;47938;48.176;16.414;2023-01-23T07:02:11;1.20;99.90
61979;DHT22;47938;48.176;16.414;2023-01-23T07:04:37;1.20;99.90
61979;DHT22;47938;48.176;16.414;2023-01-23T07:07:03;1.20;99.90
61979;DHT22;47938;48.176;16.414;2023-01-23T07:09:28;1.30;99.90
61979;DHT22;47938;48.176;16.414;2023-01-23T07:11:54;1.30;99.90
61979;DHT22;47938;48.176;16.414;2023-01-23T07:14:20;1.20;99.90
61979;DHT22;47938;48.176;16.414;2023-01-23T07:16:45;1.30;99.90
61979;DHT22;47938;48.176;16.414;2023-01-23T07:19:11;1.20;99.90
61979;DHT22;47938;48.176;16.414;2023-01-23T07:21:37;1.30;99.90
61979;DHT22;47938;48.176;16.414;2023-01-23T07:24:02;1.30;99.90
61979;DHT22;47938;48.176;16.414;2023-01-23T07:26:28;1.30;99.90
61979;DHT22;47938;48.176;16.414;2023-01-23T07:28:54;1.40;99.90
61979;DHT22;47938;48.176;16.414;2023-01-23T07:31:19;1.40;99.90
61979;DHT22;47938;48.176;16.414;2023-01-23T07:33:45;1.40;99.90
61979;DHT22;47938;48.176;16.414;2023-01-23T07:36:11;1.30;99.90
61979;DHT22;47938;48.176;16.414;2023-01-23T07:38:36;1.40;99.90
61979;DHT22;47938;48.176;16.414;2023-01-23T07:41:02;1.40;99.90
61979;DHT22;47938;48.176;16.414;2023-01-23T07:43:27;1.40;99.90
61979;DHT22;47938;48.176;16.414;2023-01-23T07:45:53;1.40;99.90
61979;DHT22;47938;48.176;16.414;2023-01-23T07:48:19;1.40;99.90
61979;DHT22;47938;48.176;16.414;2023-01-23T07:50:44;1.40;99.90
61979;DHT22;47938;48.176;16.414;2023-01-23T07:53:10;1.40;99.90
61979;DHT22;47938;48.176;16.414;2023-01-23T07:55:39;1.40;99.90
61979;DHT22;47938;48.176;16.414;2023-01-23T07:58:04;1.40;99.90
61979;DHT22;47938;48.176;16.414;2023-01-23T08:00:30;1.50;99.90
61979;DHT22;47938;48.176;16.414;2023-01-23T08:02:56;1.50;99.90
61979;DHT22;47938;48.176;16.414;2023-01-23T08:05:21;1.40;99.90
61979;DHT22;47938;48.176;16.414;2023-01-23T08:07:47;1.50;99.90
61979;DHT22;47938;48.176;16.414;2023-01-23T08:10:13;1.50;99.90
61979;DHT22;47938;48.176;16.414;2023-01-23T08:12:38;1.60;99.90
61979;DHT22;47938;48.176;16.414;2023-01-23T08:15:04;1.60;99.90
61979;DHT22;47938;48.176;16.414;2023-01-23T08:17:30;1.50;99.90
61979;DHT22;47938;48.176;16.414;2023-01-23T08:19:56;1.50;99.90
61979;DHT22;47938;48.176;16.414;2023-01-23T08:22:22;1.60;99.90
61979;DHT22;47938;48.176;16.414;2023-01-23T08:24:47;1.50;99.90
61979;DHT22;47938;48.176;16.414;2023-01-23T08:27:13;1.60;99.90
61979;DHT22;47938;48.176;16.414;2023-01-23T08:29:39;1.60;99.90
61979;DHT22;47938;48.176;16.414;2023-01-23T08:32:05;1.50;99.90
61979;DHT22;47938;48.176;16.414;2023-01-23T08:34:30;1.60;99.90
61979;DHT22;47938;48.176;16.414;2023-01-23T08:36:56;1.60;99.90
61979;DHT22;47938;48.176;16.414;2023-01-23T08:39:22;1.60;99.90
61979;DHT22;47938;48.176;16.414;2023-01-23T08:41:47;1.70;99.90
61979;DHT22;47938;48.176;16.414;2023-01-23T08:44:13;1.70;99.90
61979;DHT22;47938;48.176;16.414;2023-01-23T08:46:38;1.70;99.90
61979;DHT22;47938;48.176;16.414;2023-01-23T08:49:04;1.70;99.90
61979;DHT22;47938;48.176;16.414;2023-01-23T08:51:30;1.70;99.90
61979;DHT22;47938;48.176;16.414;2023-01-23T08:53:56;1.70;99.90
61979;DHT22;47938;48.176;16.414;2023-01-23T08:56:22;1.70;99.90
61979;DHT22;47938;48.176;16.414;2023-01-23T08:58:48;1.60;99.90
61979;DHT22;47938;48.176;16.414;2023-01-23T09:01:23;1.60;99.90
61979;DHT22;47938;48.176;16.414;2023-01-23T09:03:49;1.60;99.90
61979;DHT22;47938;48.176;16.414;2023-01-23T09:06:17;1.60;99.90
61979;DHT22;47938;48.176;16.414;2023-01-23T09:08:43;1.60;99.90
61979;DHT22;47938;48.176;16.414;2023-01-23T09:11:11;1.60;99.90
61979;DHT22;47938;48.176;16.414;2023-01-23T09:13:37;1.60;99.90
61979;DHT22;47938;48.176;16.414;2023-01-23T09:16:03;1.60;99.90
61979;DHT22;47938;48.176;16.414;2023-01-23T09:18:29;1.60;99.90
61979;DHT22;47938;48.176;16.414;2023-01-23T09:20:55;1.70;99.90
61979;DHT22;47938;48.176;16.414;2023-01-23T09:23:21;1.70;99.90
61979;DHT22;47938;48.176;16.414;2023-01-23T09:25:47;1.80;99.90
61979;DHT22;47938;48.176;16.414;2023-01-23T09:28:13;1.90;99.90
61979;DHT22;47938;48.176;16.414;2023-01-23T09:30:39;1.80;99.90
61979;DHT22;47938;48.176;16.414;2023-01-23T09:33:05;1.80;99.90
61979;DHT22;47938;48.176;16.414;2023-01-23T09:35:31;1.90;99.90
61979;DHT22;47938;48.176;16.414;2023-01-23T09:37:56;1.90;99.90
61979;DHT22;47938;48.176;16.414;2023-01-23T09:40:22;2.00;99.90
61979;DHT22;47938;48.176;16.414;2023-01-23T09:42:50;2.00;99.90
61979;DHT22;47938;48.176;16.414;2023-01-23T09:45:19;2.00;99.90
61979;DHT22;47938;48.176;16.414;2023-01-23T09:48:02;2.10;99.90
61979;DHT22;47938;48.176;16.414;2023-01-23T09:50:37;2.10;99.90
61979;DHT22;47938;48.176;16.414;2023-01-23T09:53:11;2.10;99.90
61979;DHT22;47938;48.176;16.414;2023-01-23T09:55:47;2.20;99.90
61979;DHT22;47938;48.176;16.414;2023-01-23T09:58:39;2.30;99.90
61979;DHT22;47938;48.176;16.414;2023-01-23T10:01:02;2.40;99.90
61979;DHT22;47938;48.176;16.414;2023-01-23T10:03:30;2.30;99.90
61979;DHT22;47938;48.176;16.414;2023-01-23T10:08:45;2.30;99.90
61979;DHT22;47938;48.176;16.414;2023-01-23T10:24:34;2.40;99.90
61979;DHT22;47938;48.176;16.414;2023-01-23T10:27:02;2.50;99.90
61979;DHT22;47938;48.176;16.414;2023-01-23T10:29:39;2.50;99.90
61979;DHT22;47938;48.176;16.414;2023-01-23T10:32:38;2.50;99.90
61979;DHT22;47938;48.176;16.414;2023-01-23T10:35:16;2.60;99.90
61979;DHT22;47938;48.176;16.414;2023-01-23T10:37:59;2.60;99.90
61979;DHT22;47938;48.176;16.414;2023-01-23T10:40:25;2.70;99.90
61979;DHT22;47938;48.176;16.414;2023-01-23T10:42:51;2.70;99.90
61979;DHT22;47938;48.176;16.414;2023-01-23T10:45:17;2.80;99.90
61979;DHT22;47938;48.176;16.414;2023-01-23T10:47:46;2.80;99.90
61979;DHT22;47938;48.176;16.414;2023-01-23T10:50:13;2.80;99.90
61979;DHT22;47938;48.176;16.414;2023-01-23T10:52:45;2.70;99.90
61979;DHT22;47938;48.176;16.414;2023-01-23T10:57:47;2.70;99.90
61979;DHT22;47938;48.176;16.414;2023-01-23T11:02:51;2.50;99.90
61979;DHT22;47938;48.176;16.414;2023-01-23T11:05:38;2.60;99.90
61979;DHT22;47938;48.176;16.414;2023-01-23T11:08:30;2.70;99.90
61979;DHT22;47938;48.176;16.414;2023-01-23T11:11:18;2.70;99.90
61979;DHT22;47938;48.176;16.414;2023-01-23T11:13:50;2.80;99.90
61979;DHT22;47938;48.176;16.414;2023-01-23T11:16:22;2.80;99.90
61979;DHT22;47938;48.176;16.414;2023-01-23T11:19:18;2.80;99.90
61979;DHT22;47938;48.176;16.414;2023-01-23T11:21:54;2.90;99.90
61979;DHT22;47938;48.176;16.414;2023-01-23T11:24:34;2.90;99.90
61979;DHT22;47938;48.176;16.414;2023-01-23T11:32:22;2.80;99.90
61979;DHT22;47938;48.176;16.414;2023-01-23T11:35:01;2.90;99.90
61979;DHT22;47938;48.176;16.414;2023-01-23T11:37:35;3.00;99.90
61979;DHT22;47938;48.176;16.414;2023-01-23T11:40:09;3.10;99.90
61979;DHT22;47938;48.176;16.414;2023-01-23T11:42:38;3.10;99.90
61979;DHT22;47938;48.176;16.414;2023-01-23T11:45:32;3.10;99.90
61979;DHT22;47938;48.176;16.414;2023-01-23T11:50:50;3.00;99.90
61979;DHT22;47938;48.176;16.414;2023-01-23T11:59:30;3.00;99.90
61979;DHT22;47938;48.176;16.414;2023-01-23T12:02:16;3.00;99.90
61979;DHT22;47938;48.176;16.414;2023-01-23T12:13:20;3.00;99.90
61979;DHT22;47938;48.176;16.414;2023-01-23T12:21:26;3.10;99.90
61979;DHT22;47938;48.176;16.414;2023-01-23T12:27:09;3.30;99.90
61979;DHT22;47938;48.176;16.414;2023-01-23T12:35:23;3.40;99.90
61979;DHT22;47938;48.176;16.414;2023-01-23T12:40:36;3.40;99.90
61979;DHT22;47938;48.176;16.414;2023-01-23T12:43:15;3.30;99.90
61979;DHT22;47938;48.176;16.414;2023-01-23T12:45:55;3.40;99.90
61979;DHT22;47938;48.176;16.414;2023-01-23T12:48:38;3.60;99.90
61979;DHT22;47938;48.176;16.414;2023-01-23T12:51:07;3.60;99.90
61979;DHT22;47938;48.176;16.414;2023-01-23T12:53:37;3.70;99.90
61979;DHT22;47938;48.176;16.414;2023-01-23T12:56:13;3.70;99.90
61979;DHT22;47938;48.176;16.414;2023-01-23T12:58:41;3.80;99.90
61979;DHT22;47938;48.176;16.414;2023-01-23T13:04:20;3.80;99.90
61979;DHT22;47938;48.176;16.414;2023-01-23T13:12:27;4.00;99.90
61979;DHT22;47938;48.176;16.414;2023-01-23T13:20:36;4.00;99.90
61979;DHT22;47938;48.176;16.414;2023-01-23T13:23:26;4.00;99.90
61979;DHT22;47938;48.176;16.414;2023-01-23T13:26:32;3.90;99.90
61979;DHT22;47938;48.176;16.414;2023-01-23T13:29:00;3.80;99.90
61979;DHT22;47938;48.176;16.414;2023-01-23T13:31:45;3.70;99.90
61979;DHT22;47938;48.176;16.414;2023-01-23T13:36:44;3.70;99.90
61979;DHT22;47938;48.176;16.414;2023-01-23T13:41:43;3.90;99.90
61979;DHT22;47938;48.176;16.414;2023-01-23T13:44:23;3.80;99.90
61979;DHT22;47938;48.176;16.414;2023-01-23T13:49:57;4.00;99.90
61979;DHT22;47938;48.176;16.414;2023-01-23T13:52:36;4.00;99.90
61979;DHT22;47938;48.176;16.414;2023-01-23T13:57:41;3.80;99.90
61979;DHT22;47938;48.176;16.414;2023-01-23T14:00:26;3.80;99.90
61979;DHT22;47938;48.176;16.414;2023-01-23T14:05:27;3.80;99.90
61979;DHT22;47938;48.176;16.414;2023-01-23T14:08:01;3.80;99.90
61979;DHT22;47938;48.176;16.414;2023-01-23T14:10:30;3.80;99.90
61979;DHT22;47938;48.176;16.414;2023-01-23T14:13:15;3.90;99.90
61979;DHT22;47938;48.176;16.414;2023-01-23T14:15:49;3.90;99.90
61979;DHT22;47938;48.176;16.414;2023-01-23T14:23:34;3.90;99.90
61979;DHT22;47938;48.176;16.414;2023-01-23T14:26:02;3.90;99.90
61979;DHT22;47938;48.176;16.414;2023-01-23T14:28:28;3.70;99.90
61979;DHT22;47938;48.176;16.414;2023-01-23T14:31:00;3.70;99.90
61979;DHT22;47938;48.176;16.414;2023-01-23T14:33:27;3.80;99.90
61979;DHT22;47938;48.176;16.414;2023-01-23T14:35:53;3.70;99.90
61979;DHT22;47938;48.176;16.414;2023-01-23T14:38:26;3.70;99.90
61979;DHT22;47938;48.176;16.414;2023-01-23T14:40:52;3.80;99.90
61979;DHT22;47938;48.176;16.414;2023-01-23T14:43:24;3.80;99.90
61979;DHT22;47938;48.176;16.414;2023-01-23T14:46:13;3.80;99.90
61979;DHT22;47938;48.176;16.414;2023-01-23T14:48:40;3.80;99.90
61979;DHT22;47938;48.176;16.414;2023-01-23T14:51:27;3.70;99.90
61979;DHT22;47938;48.176;16.414;2023-01-23T14:54:01;3.80;99.90
61979;DHT22;47938;48.176;16.414;2023-01-23T14:56:33;3.80;99.90
61979;DHT22;47938;48.176;16.414;2023-01-23T14:59:02;3.80;99.90
61979;DHT22;47938;48.176;16.414;2023-01-23T15:01:29;3.80;99.90
61979;DHT22;47938;48.176;16.414;2023-01-23T15:04:01;3.80;99.90
61979;DHT22;47938;48.176;16.414;2023-01-23T15:06:29;3.80;99.90
61979;DHT22;47938;48.176;16.414;2023-01-23T15:09:04;3.80;99.90
61979;DHT22;47938;48.176;16.414;2023-01-23T15:11:31;3.70;99.90
61979;DHT22;47938;48.176;16.414;2023-01-23T15:13:58;3.60;99.90
61979;DHT22;47938;48.176;16.414;2023-01-23T15:16:28;3.70;99.90
61979;DHT22;47938;48.176;16.414;2023-01-23T15:21:38;3.70;99.90
61979;DHT22;47938;48.176;16.414;2023-01-23T15:24:16;3.70;99.90
61979;DHT22;47938;48.176;16.414;2023-01-23T15:27:04;3.70;99.90
61979;DHT22;47938;48.176;16.414;2023-01-23T15:29:32;3.70;99.90
61979;DHT22;47938;48.176;16.414;2023-01-23T15:31:58;3.60;99.90
61979;DHT22;47938;48.176;16.414;2023-01-23T15:34:32;3.60;99.90
61979;DHT22;47938;48.176;16.414;2023-01-23T15:37:05;3.60;99.90
61979;DHT22;47938;48.176;16.414;2023-01-23T15:39:53;3.70;99.90
61979;DHT22;47938;48.176;16.414;2023-01-23T15:42:26;3.70;99.90
61979;DHT22;47938;48.176;16.414;2023-01-23T15:44:52;3.60;99.90
61979;DHT22;47938;48.176;16.414;2023-01-23T15:47:17;3.60;99.90
61979;DHT22;47938;48.176;16.414;2023-01-23T15:49:43;3.60;99.90
61979;DHT22;47938;48.176;16.414;2023-01-23T15:52:26;3.60;99.90
61979;DHT22;47938;48.176;16.414;2023-01-23T15:55:04;3.60;99.90
61979;DHT22;47938;48.176;16.414;2023-01-23T15:57:29;3.60;99.90
61979;DHT22;47938;48.176;16.414;2023-01-23T15:59:55;3.60;99.90
61979;DHT22;47938;48.176;16.414;2023-01-23T16:02:22;3.60;99.90
61979;DHT22;47938;48.176;16.414;2023-01-23T16:04:49;3.60;99.90
61979;DHT22;47938;48.176;16.414;2023-01-23T16:07:22;3.60;99.90
61979;DHT22;47938;48.176;16.414;2023-01-23T16:09:48;3.60;99.90
61979;DHT22;47938;48.176;16.414;2023-01-23T16:12:16;3.50;99.90
61979;DHT22;47938;48.176;16.414;2023-01-23T16:14:42;3.50;99.90
61979;DHT22;47938;48.176;16.414;2023-01-23T16:17:08;3.50;99.90
61979;DHT22;47938;48.176;16.414;2023-01-23T16:19:33;3.50;99.90
61979;DHT22;47938;48.176;16.414;2023-01-23T16:21:59;3.50;99.90
61979;DHT22;47938;48.176;16.414;2023-01-23T16:24:25;3.50;99.90
61979;DHT22;47938;48.176;16.414;2023-01-23T16:26:51;3.50;99.90
61979;DHT22;47938;48.176;16.414;2023-01-23T16:29:28;3.50;99.90
61979;DHT22;47938;48.176;16.414;2023-01-23T16:31:55;3.50;99.90
61979;DHT22;47938;48.176;16.414;2023-01-23T16:34:21;3.50;99.90
61979;DHT22;47938;48.176;16.414;2023-01-23T16:36:48;3.50;99.90
61979;DHT22;47938;48.176;16.414;2023-01-23T16:39:20;3.50;99.90
61979;DHT22;47938;48.176;16.414;2023-01-23T16:41:47;3.40;99.90
61979;DHT22;47938;48.176;16.414;2023-01-23T16:44:14;3.50;99.90
61979;DHT22;47938;48.176;16.414;2023-01-23T16:46:40;3.50;99.90
61979;DHT22;47938;48.176;16.414;2023-01-23T16:49:05;3.40;99.90
61979;DHT22;47938;48.176;16.414;2023-01-23T16:51:32;3.50;99.90
61979;DHT22;47938;48.176;16.414;2023-01-23T16:53:59;3.50;99.90
61979;DHT22;47938;48.176;16.414;2023-01-23T16:56:34;3.50;99.90
61979;DHT22;47938;48.176;16.414;2023-01-23T16:59:03;3.40;99.90
61979;DHT22;47938;48.176;16.414;2023-01-23T17:01:35;3.40;99.90
61979;DHT22;47938;48.176;16.414;2023-01-23T17:04:02;3.40;99.90
61979;DHT22;47938;48.176;16.414;2023-01-23T17:06:29;3.40;99.90
61979;DHT22;47938;48.176;16.414;2023-01-23T17:08:55;3.40;99.90
61979;DHT22;47938;48.176;16.414;2023-01-23T17:11:36;3.30;99.90
61979;DHT22;47938;48.176;16.414;2023-01-23T17:14:13;3.30;99.90
61979;DHT22;47938;48.176;16.414;2023-01-23T17:16:49;3.30;99.90
61979;DHT22;47938;48.176;16.414;2023-01-23T17:19:27;3.40;99.90
61979;DHT22;47938;48.176;16.414;2023-01-23T17:21:53;3.40;99.90
61979;DHT22;47938;48.176;16.414;2023-01-23T17:24:19;3.30;99.90